Time;durP1;ratioP1;P1;durP2;ratioP2;P2;SDS_P1;SDS_P2;PMS_P1;PMS_P2;Temp;Humidity;BMP_temperature;BMP_pressure;BME280_temperature;BME280_humidity;BME280_pressure;Samples;Min_cycle;Max_cycle;Signal;HPM_P1;HPM_P2
2022/07/16 00:01:22;;;;;;;1.85;0.10;;;31.20;28.90;;;;;;5081147;28;20086;-59
2022/07/16 00:01:50;;;;;;;3.03;0.13;;;31.20;28.90;;;;;;5079719;28;20136;-59
2022/07/16 00:04:17;;;;;;;0.30;0.10;;;31.10;28.90;;;;;;5072128;28;20080;-58
2022/07/16 00:06:45;;;;;;;0.68;0.20;;;31.10;29.00;;;;;;5078745;28;20109;-61
2022/07/16 00:09:13;;;;;;;0.10;0.10;;;31.10;29.00;;;;;;5074527;28;20370;-59
2022/07/16 00:11:40;;;;;;;0.52;0.10;;;31.10;29.00;;;;;;5076157;28;20040;-60
2022/07/16 00:14:08;;;;;;;0.10;0.10;;;31.10;29.10;;;;;;5073759;28;20066;-58
2022/07/16 00:16:35;;;;;;;7.03;0.10;;;31.10;29.10;;;;;;5079327;28;20509;-59
2022/07/16 00:19:23;;;;;;;0.60;0.10;;;31.00;29.00;;;;;;5069839;28;20059;-58
2022/07/16 00:21:52;;;;;;;0.10;0.10;;;31.00;29.00;;;;;;5072171;28;20044;-59
2022/07/16 00:24:20;;;;;;;1.05;0.10;;;31.00;29.20;;;;;;5075435;28;20040;-59
2022/07/16 00:26:48;;;;;;;2.65;0.30;;;31.00;29.20;;;;;;5079251;28;20036;-59
2022/07/16 00:29:18;;;;;;;2.65;0.10;;;30.90;29.20;;;;;;5065144;28;20493;-60
2022/07/16 00:31:47;;;;;;;0.52;0.10;;;30.90;29.20;;;;;;5072776;28;20820;-59
2022/07/16 00:34:17;;;;;;;2.05;0.10;;;30.90;29.20;;;;;;5077532;28;20620;-59
2022/07/16 00:36:45;;;;;;;2.63;0.10;;;30.90;29.20;;;;;;5056370;28;20078;-59
2022/07/16 00:39:13;;;;;;;1.35;0.10;;;30.90;29.20;;;;;;5085711;28;20032;-59
2022/07/16 00:41:42;;;;;;;1.73;0.10;;;30.90;29.20;;;;;;5072886;28;20144;-59
2022/07/16 00:44:11;;;;;;;0.30;0.10;;;30.90;29.30;;;;;;5077894;28;20050;-60
2022/07/16 00:46:40;;;;;;;0.00;0.00;;;30.80;29.30;;;;;;5061514;28;20139;-60
2022/07/16 00:49:08;;;;;;;0.88;0.30;;;30.80;29.40;;;;;;5069805;28;20041;-59
2022/07/16 00:51:42;;;;;;;0.10;0.00;;;30.80;29.40;;;;;;5072310;28;20489;-60
2022/07/16 00:54:09;;;;;;;0.80;0.13;;;30.80;29.50;;;;;;5081699;28;20121;-60
2022/07/16 00:56:36;;;;;;;0.20;0.10;;;30.80;29.50;;;;;;5079882;28;20063;-60
2022/07/16 00:59:04;;;;;;;0.22;0.05;;;30.80;29.60;;;;;;5084589;28;20089;-59
2022/07/16 01:01:31;;;;;;;2.05;0.00;;;30.80;29.70;;;;;;5082667;28;20409;-59
2022/07/16 01:03:59;;;;;;;0.10;0.10;;;30.80;29.90;;;;;;5079536;28;20442;-58
2022/07/16 01:06:27;;;;;;;0.85;0.20;;;30.70;29.90;;;;;;5076297;28;20089;-58
2022/07/16 01:08:56;;;;;;;0.45;0.20;;;30.70;29.90;;;;;;5079190;28;20082;-60
2022/07/16 01:11:23;;;;;;;0.57;0.10;;;30.70;29.90;;;;;;5084026;28;20036;-58
2022/07/16 01:13:51;;;;;;;1.63;0.20;;;30.70;30.00;;;;;;5065169;28;20076;-60
2022/07/16 01:16:20;;;;;;;1.65;0.10;;;30.70;30.00;;;;;;5079623;28;20047;-58
2022/07/16 01:18:47;;;;;;;0.13;0.05;;;30.70;30.10;;;;;;5082074;28;20055;-58
2022/07/16 01:21:16;;;;;;;0.52;0.10;;;30.60;30.00;;;;;;5065969;28;20442;-59
2022/07/16 01:23:47;;;;;;;0.30;0.10;;;30.60;30.70;;;;;;5070545;28;20047;-61
2022/07/16 01:26:15;;;;;;;0.52;0.05;;;30.60;30.20;;;;;;5076198;28;20040;-60
2022/07/16 01:28:42;;;;;;;0.10;0.10;;;30.60;30.70;;;;;;5066461;28;20105;-58
2022/07/16 01:31:09;;;;;;;0.10;0.10;;;30.60;30.20;;;;;;5074517;28;20055;-59
2022/07/16 01:33:39;;;;;;;0.15;0.10;;;30.60;30.10;;;;;;5084567;28;20564;-57
2022/07/16 01:36:09;;;;;;;1.65;0.10;;;30.50;30.00;;;;;;5062627;28;20117;-59
2022/07/16 01:38:40;;;;;;;0.52;0.10;;;30.50;30.00;;;;;;5081051;28;20073;-58
2022/07/16 01:41:09;;;;;;;0.47;0.00;;;30.50;30.00;;;;;;5076659;28;20134;-58
2022/07/16 01:43:37;;;;;;;1.20;0.10;;;30.50;30.00;;;;;;5083099;28;20047;-59
2022/07/16 01:46:05;;;;;;;0.00;0.00;;;30.50;29.90;;;;;;5088750;28;20501;-60
2022/07/16 01:48:33;;;;;;;0.10;0.10;;;30.50;30.00;;;;;;5086096;28;20520;-58
2022/07/16 01:51:01;;;;;;;0.77;0.00;;;30.40;29.90;;;;;;5089406;28;20820;-59
2022/07/16 01:53:29;;;;;;;0.00;0.00;;;30.40;29.90;;;;;;5078093;28;20051;-59
2022/07/16 01:55:56;;;;;;;0.40;0.10;;;30.40;29.90;;;;;;5088198;28;20067;-62
2022/07/16 01:58:26;;;;;;;0.75;0.10;;;30.40;29.90;;;;;;5074538;28;20453;-59
2022/07/16 02:00:54;;;;;;;1.70;0.10;;;30.30;29.80;;;;;;5082873;28;20420;-59
2022/07/16 02:03:21;;;;;;;0.70;0.05;;;30.30;29.80;;;;;;5077647;28;20622;-59
2022/07/16 02:05:48;;;;;;;0.05;0.05;;;30.30;29.80;;;;;;5079239;28;20051;-59
2022/07/16 02:08:16;;;;;;;0.20;0.10;;;30.30;29.90;;;;;;5076307;28;20044;-60
2022/07/16 02:10:43;;;;;;;0.70;0.10;;;30.20;29.90;;;;;;5076754;28;20105;-59
2022/07/16 02:13:10;;;;;;;0.10;0.10;;;30.20;29.80;;;;;;5078115;28;20451;-59
2022/07/16 02:15:39;;;;;;;0.98;0.03;;;30.20;29.90;;;;;;5079025;28;20044;-59
2022/07/16 02:18:06;;;;;;;0.45;0.10;;;30.20;29.90;;;;;;5074612;28;20486;-60
2022/07/16 02:20:33;;;;;;;0.77;0.10;;;30.20;29.90;;;;;;5077745;28;20687;-59
2022/07/16 02:23:01;;;;;;;0.47;0.00;;;30.10;29.80;;;;;;5082175;28;20817;-58
2022/07/16 02:25:28;;;;;;;0.77;0.00;;;30.10;29.90;;;;;;5081602;28;20056;-60
2022/07/16 02:28:07;;;;;;;0.55;0.10;;;30.10;30.00;;;;;;5081046;28;20475;-60
2022/07/16 02:30:36;;;;;;;0.40;0.30;;;30.10;30.00;;;;;;5077718;28;20048;-60
2022/07/16 02:33:05;;;;;;;1.23;0.10;;;30.00;29.90;;;;;;5075891;28;20080;-59
2022/07/16 02:35:33;;;;;;;0.20;0.10;;;30.00;30.00;;;;;;5079181;28;20496;-59
2022/07/16 02:38:00;;;;;;;4.57;0.20;;;30.00;30.00;;;;;;5076958;28;20072;-59
2022/07/16 02:40:28;;;;;;;0.50;0.45;;;30.00;30.00;;;;;;5080400;28;20040;-58
2022/07/16 02:42:56;;;;;;;0.20;0.10;;;30.00;30.00;;;;;;5081608;28;20043;-60
2022/07/16 02:45:23;;;;;;;4.13;0.10;;;30.00;30.00;;;;;;5075575;28;20092;-59
2022/07/16 02:47:50;;;;;;;0.32;0.25;;;29.90;30.00;;;;;;5077659;28;20519;-59
2022/07/16 02:50:20;;;;;;;0.98;0.20;;;29.90;30.60;;;;;;5073979;28;20044;-58
2022/07/16 02:52:47;;;;;;;0.43;0.10;;;29.90;30.00;;;;;;5082331;28;20047;-59
2022/07/16 02:55:14;;;;;;;1.13;0.08;;;29.90;30.10;;;;;;5078333;28;20040;-59
2022/07/16 02:57:41;;;;;;;0.30;0.00;;;29.90;30.10;;;;;;5087551;28;20075;-58
2022/07/16 03:00:11;;;;;;;1.42;0.20;;;29.90;30.10;;;;;;5076314;28;20090;-59
2022/07/16 03:02:39;;;;;;;1.05;0.03;;;29.80;30.10;;;;;;5077030;28;20052;-59
2022/07/16 03:05:07;;;;;;;0.30;0.25;;;29.80;30.20;;;;;;5078057;28;20128;-59
2022/07/16 03:07:36;;;;;;;0.32;0.10;;;29.80;30.20;;;;;;5079530;28;20505;-59
2022/07/16 03:10:05;;;;;;;1.27;0.10;;;29.80;30.20;;;;;;5082152;28;20224;-58
2022/07/16 03:12:33;;;;;;;0.03;0.00;;;29.80;30.30;;;;;;5075949;28;20185;-59
2022/07/16 03:15:00;;;;;;;0.52;0.20;;;29.80;30.30;;;;;;5056728;28;20124;-59
2022/07/16 03:17:27;;;;;;;0.00;0.00;;;29.80;30.30;;;;;;5076168;28;20066;-58
2022/07/16 03:19:54;;;;;;;0.43;0.10;;;29.80;30.30;;;;;;5079204;28;20068;-58
2022/07/16 03:22:21;;;;;;;0.63;0.10;;;29.70;30.30;;;;;;5079562;28;20156;-59
2022/07/16 03:24:50;;;;;;;0.65;0.20;;;29.70;30.30;;;;;;5079733;28;20076;-59
2022/07/16 03:27:17;;;;;;;0.35;0.10;;;29.70;30.30;;;;;;5067832;28;20098;-58
2022/07/16 03:29:44;;;;;;;0.60;0.10;;;29.70;30.40;;;;;;5082121;28;20036;-59
2022/07/16 03:32:11;;;;;;;2.13;0.10;;;29.70;30.40;;;;;;5074196;28;20044;-59
2022/07/16 03:34:38;;;;;;;0.43;0.00;;;29.70;30.40;;;;;;5071165;28;20068;-59
2022/07/16 03:37:06;;;;;;;1.85;0.10;;;29.70;30.50;;;;;;5074199;28;20039;-59
2022/07/16 03:39:33;;;;;;;1.05;0.05;;;29.70;30.40;;;;;;5059212;28;20036;-59
2022/07/16 03:42:02;;;;;;;0.40;0.00;;;29.70;30.50;;;;;;5073759;28;20036;-59
2022/07/16 03:44:29;;;;;;;0.10;0.10;;;29.70;30.40;;;;;;5075306;28;20094;-60
2022/07/16 03:46:56;;;;;;;0.30;0.10;;;29.60;30.30;;;;;;5082037;28;20052;-59
2022/07/16 03:49:23;;;;;;;0.35;0.10;;;29.60;30.40;;;;;;5075902;28;20605;-60
2022/07/16 03:51:50;;;;;;;2.13;0.38;;;29.60;30.40;;;;;;5080053;28;20040;-60
2022/07/16 03:54:17;;;;;;;0.65;0.10;;;29.60;30.30;;;;;;5054332;28;20033;-59
2022/07/16 03:56:45;;;;;;;0.55;0.10;;;29.60;30.30;;;;;;5034067;28;20048;-60
2022/07/16 03:59:13;;;;;;;5.28;0.10;;;29.60;30.40;;;;;;5069727;28;20545;-60
2022/07/16 04:01:40;;;;;;;2.70;0.10;;;29.60;30.40;;;;;;5082849;28;20059;-58
2022/07/16 04:04:07;;;;;;;2.58;0.10;;;29.60;30.40;;;;;;5078890;28;20788;-59
2022/07/16 04:06:34;;;;;;;3.30;0.08;;;29.60;30.40;;;;;;5080607;28;20048;-60
2022/07/16 04:09:02;;;;;;;0.73;0.10;;;29.60;30.40;;;;;;5073777;28;20066;-59
2022/07/16 04:11:30;;;;;;;0.63;0.00;;;29.50;30.40;;;;;;5060662;28;20049;-59
2022/07/16 04:13:59;;;;;;;0.10;0.00;;;29.50;30.40;;;;;;5073849;28;20055;-59
2022/07/16 04:16:28;;;;;;;0.28;0.05;;;29.50;30.50;;;;;;5078038;28;20102;-59
2022/07/16 04:18:55;;;;;;;0.10;0.00;;;29.50;30.50;;;;;;5080469;28;20692;-59
2022/07/16 04:21:22;;;;;;;1.33;0.00;;;29.50;30.50;;;;;;5076094;28;20040;-60
2022/07/16 04:23:50;;;;;;;0.10;0.10;;;29.50;30.60;;;;;;5085427;28;20040;-60
2022/07/16 04:26:17;;;;;;;1.25;0.00;;;29.40;30.60;;;;;;5070762;28;20048;-59
2022/07/16 04:28:44;;;;;;;0.52;0.10;;;29.40;30.60;;;;;;5080536;28;20106;-60
2022/07/16 04:31:11;;;;;;;0.85;0.10;;;29.40;30.70;;;;;;5074506;28;20050;-59
2022/07/16 04:33:39;;;;;;;2.72;0.22;;;29.40;30.70;;;;;;5085859;28;20420;-59
2022/07/16 04:36:07;;;;;;;0.17;0.10;;;29.40;30.70;;;;;;5072782;28;20044;-59
2022/07/16 04:38:34;;;;;;;0.75;0.10;;;29.30;30.80;;;;;;5081763;28;20154;-60
2022/07/16 04:41:01;;;;;;;0.15;0.00;;;29.30;30.90;;;;;;5083955;28;20493;-59
2022/07/16 04:43:28;;;;;;;0.50;0.10;;;29.30;31.00;;;;;;5080184;28;20076;-60
2022/07/16 04:45:55;;;;;;;0.85;0.10;;;29.30;31.00;;;;;;5078763;28;20048;-60
2022/07/16 04:48:22;;;;;;;0.45;0.10;;;29.40;31.10;;;;;;5076389;28;20779;-59
2022/07/16 04:50:51;;;;;;;0.15;0.05;;;29.30;31.10;;;;;;5072181;28;20127;-60
2022/07/16 04:53:18;;;;;;;0.43;0.20;;;29.30;31.20;;;;;;5074864;28;20512;-58
2022/07/16 04:55:45;;;;;;;0.13;0.10;;;29.30;31.20;;;;;;5075173;28;20658;-57
2022/07/16 04:58:14;;;;;;;0.10;0.00;;;29.30;31.20;;;;;;5066756;28;20156;-58
2022/07/16 05:00:42;;;;;;;0.93;0.30;;;29.30;31.30;;;;;;5067720;28;20553;-59
2022/07/16 05:03:09;;;;;;;2.47;0.10;;;29.30;31.30;;;;;;5070695;28;20036;-58
2022/07/16 05:05:38;;;;;;;0.20;0.10;;;29.20;31.30;;;;;;5074475;28;20074;-58
2022/07/16 05:08:09;;;;;;;0.50;0.30;;;29.20;31.30;;;;;;5073655;28;20040;-57
2022/07/16 05:10:37;;;;;;;1.73;0.20;;;29.20;31.30;;;;;;5078822;28;20067;-56
2022/07/16 05:13:05;;;;;;;0.57;0.03;;;29.20;31.40;;;;;;5078170;28;20093;-55
2022/07/16 05:15:32;;;;;;;2.42;0.10;;;29.20;31.40;;;;;;5074637;28;20393;-58
2022/07/16 05:17:59;;;;;;;0.22;0.22;;;29.10;31.40;;;;;;5078693;28;20057;-59
2022/07/16 05:20:27;;;;;;;0.95;0.30;;;29.10;31.40;;;;;;5058611;28;20428;-58
2022/07/16 05:22:54;;;;;;;0.38;0.10;;;29.10;31.50;;;;;;5074733;28;20048;-58
2022/07/16 05:25:23;;;;;;;0.10;0.10;;;29.00;31.50;;;;;;5077110;28;20048;-55
2022/07/16 05:27:51;;;;;;;0.98;0.20;;;29.00;31.60;;;;;;5076887;28;20166;-54
2022/07/16 05:30:18;;;;;;;0.20;0.10;;;29.00;31.60;;;;;;5073110;28;20032;-57
2022/07/16 05:32:46;;;;;;;0.57;0.00;;;29.00;31.70;;;;;;5084666;28;20044;-56
2022/07/16 05:35:14;;;;;;;1.02;0.10;;;28.90;31.60;;;;;;5075043;28;20582;-57
2022/07/16 05:37:42;;;;;;;0.20;0.10;;;28.90;31.70;;;;;;5072009;28;20072;-58
2022/07/16 05:40:11;;;;;;;0.57;0.10;;;28.90;31.80;;;;;;5078987;28;20366;-57
2022/07/16 05:42:40;;;;;;;1.10;0.20;;;28.90;31.80;;;;;;5077052;28;20501;-56
2022/07/16 05:45:08;;;;;;;0.73;0.10;;;28.90;31.90;;;;;;5070162;28;20044;-58
2022/07/16 05:47:36;;;;;;;2.50;0.10;;;28.90;31.90;;;;;;5074011;28;20051;-56
2022/07/16 05:50:03;;;;;;;3.53;0.13;;;28.80;31.90;;;;;;5077656;28;20044;-57
2022/07/16 05:52:30;;;;;;;0.20;0.20;;;28.80;31.90;;;;;;5069143;28;20040;-57
2022/07/16 05:54:57;;;;;;;0.15;0.10;;;28.80;31.90;;;;;;5075292;28;20062;-56
2022/07/16 05:57:24;;;;;;;1.23;0.35;;;28.80;31.80;;;;;;5082173;28;20043;-50
2022/07/16 05:59:53;;;;;;;2.00;0.20;;;28.80;31.90;;;;;;5089042;28;20132;-47
2022/07/16 06:02:20;;;;;;;1.02;0.10;;;28.80;32.10;;;;;;5073455;28;20378;-47
2022/07/16 06:04:47;;;;;;;0.57;0.10;;;28.80;32.20;;;;;;5076848;28;20064;-48
2022/07/16 06:07:14;;;;;;;2.50;0.20;;;28.80;32.20;;;;;;5082722;28;20582;-47
2022/07/16 06:09:41;;;;;;;1.65;0.10;;;28.80;32.30;;;;;;5083827;28;20062;-45
2022/07/16 06:12:08;;;;;;;1.48;0.10;;;28.90;32.60;;;;;;5088015;28;20040;-45
2022/07/16 06:14:35;;;;;;;1.55;0.10;;;28.90;32.60;;;;;;5068364;28;20115;-45
2022/07/16 06:17:03;;;;;;;0.65;0.10;;;28.90;32.60;;;;;;5083319;28;20040;-45
2022/07/16 06:19:30;;;;;;;4.40;0.10;;;29.00;32.80;;;;;;5081443;28;20066;-44
2022/07/16 06:21:57;;;;;;;3.45;0.20;;;29.10;32.90;;;;;;5076597;28;20043;-46
2022/07/16 06:24:24;;;;;;;2.20;0.10;;;29.10;33.00;;;;;;5077644;28;20118;-46
2022/07/16 06:26:51;;;;;;;1.35;0.10;;;29.20;33.10;;;;;;5074088;28;20504;-45
2022/07/16 06:29:19;;;;;;;1.92;0.20;;;29.20;33.10;;;;;;5081287;28;20117;-46
2022/07/16 06:31:46;;;;;;;0.68;0.10;;;29.20;33.20;;;;;;5081306;28;20040;-47
2022/07/16 06:34:14;;;;;;;0.50;0.35;;;29.30;33.30;;;;;;5077240;28;20525;-44
2022/07/16 06:36:42;;;;;;;2.55;0.10;;;29.30;33.30;;;;;;5080975;28;20067;-45
2022/07/16 06:39:09;;;;;;;0.75;0.10;;;29.40;33.30;;;;;;5073259;28;20033;-50
2022/07/16 06:41:37;;;;;;;5.05;0.30;;;29.40;33.30;;;;;;5078662;28;20090;-46
2022/07/16 06:44:04;;;;;;;2.58;0.10;;;29.40;33.20;;;;;;5075473;28;20086;-46
2022/07/16 06:46:31;;;;;;;1.48;0.10;;;29.50;33.30;;;;;;5083516;28;20053;-45
2022/07/16 06:48:58;;;;;;;0.22;0.10;;;29.50;33.20;;;;;;5081102;28;20047;-46
2022/07/16 06:51:27;;;;;;;1.20;0.30;;;29.50;33.20;;;;;;5076666;28;20055;-44
2022/07/16 06:53:54;;;;;;;0.03;0.00;;;29.60;33.20;;;;;;5074156;28;20028;-46
2022/07/16 06:56:22;;;;;;;0.20;0.10;;;29.60;33.20;;;;;;5077310;28;20044;-44
2022/07/16 06:58:49;;;;;;;0.20;0.20;;;29.60;33.10;;;;;;5079458;28;20037;-45
2022/07/16 07:01:16;;;;;;;0.40;0.10;;;29.70;33.20;;;;;;5076953;28;20528;-46
2022/07/16 07:03:43;;;;;;;1.05;0.10;;;29.70;33.10;;;;;;5080261;28;20051;-45
2022/07/16 07:06:10;;;;;;;1.48;0.10;;;29.70;33.10;;;;;;5070321;28;20110;-47
2022/07/16 07:08:38;;;;;;;0.35;0.10;;;29.80;33.10;;;;;;5086885;28;20044;-45
2022/07/16 07:11:05;;;;;;;0.98;0.10;;;29.80;33.10;;;;;;5077489;28;20067;-45
2022/07/16 07:13:32;;;;;;;0.10;0.10;;;29.80;33.10;;;;;;5081068;28;20045;-49
2022/07/16 07:16:00;;;;;;;0.10;0.10;;;29.80;33.00;;;;;;5075960;28;20127;-46
2022/07/16 07:18:27;;;;;;;1.50;0.10;;;29.90;33.10;;;;;;5077751;28;20036;-45
2022/07/16 07:20:54;;;;;;;0.63;0.10;;;29.90;33.00;;;;;;5057648;28;20569;-48
2022/07/16 07:23:21;;;;;;;0.20;0.10;;;29.90;33.00;;;;;;5076501;28;20491;-44
2022/07/16 07:25:50;;;;;;;1.88;0.10;;;29.90;33.00;;;;;;5077009;28;20108;-48
2022/07/16 07:28:17;;;;;;;0.28;0.28;;;30.00;33.00;;;;;;5078763;28;20497;-44
2022/07/16 07:30:44;;;;;;;0.90;0.10;;;30.00;33.00;;;;;;5079521;28;20089;-49
2022/07/16 07:33:11;;;;;;;0.30;0.10;;;30.00;32.90;;;;;;5076808;28;20468;-45
2022/07/16 07:35:38;;;;;;;0.10;0.10;;;30.00;32.90;;;;;;5069428;28;20099;-47
2022/07/16 07:38:05;;;;;;;0.30;0.10;;;30.00;32.90;;;;;;5073046;28;20044;-46
2022/07/16 07:40:32;;;;;;;1.38;0.10;;;30.10;32.90;;;;;;5068883;28;20036;-46
2022/07/16 07:43:01;;;;;;;1.17;0.10;;;30.10;32.90;;;;;;5076478;28;20044;-49
2022/07/16 07:45:28;;;;;;;0.70;0.10;;;30.10;32.90;;;;;;5077233;28;20036;-49
2022/07/16 07:47:55;;;;;;;0.38;0.00;;;30.10;32.80;;;;;;5074077;28;20123;-48
2022/07/16 07:50:22;;;;;;;0.05;0.03;;;30.10;32.80;;;;;;5077284;28;20037;-46
2022/07/16 07:52:49;;;;;;;0.28;0.10;;;30.10;32.80;;;;;;5073413;28;20104;-47
2022/07/16 07:55:16;;;;;;;0.10;0.10;;;30.20;32.90;;;;;;5078597;28;20043;-45
2022/07/16 07:57:43;;;;;;;0.10;0.00;;;30.20;32.80;;;;;;5071668;28;20048;-46
2022/07/16 08:00:12;;;;;;;0.10;0.00;;;30.20;32.80;;;;;;5076779;28;20492;-46
2022/07/16 08:02:43;;;;;;;0.80;0.10;;;30.20;32.80;;;;;;5071507;28;20043;-45
2022/07/16 08:05:11;;;;;;;1.05;0.10;;;30.20;32.80;;;;;;5077116;28;20040;-47
2022/07/16 08:07:38;;;;;;;0.75;0.10;;;30.30;32.90;;;;;;5073811;28;20051;-46
2022/07/16 08:10:07;;;;;;;5.05;0.10;;;30.20;32.80;;;;;;5075224;28;20124;-47
2022/07/16 08:12:35;;;;;;;1.35;0.20;;;30.30;32.80;;;;;;5078228;28;20499;-46
2022/07/16 08:15:02;;;;;;;0.10;0.10;;;30.30;32.80;;;;;;5074902;28;20064;-47
2022/07/16 08:17:31;;;;;;;0.10;0.10;;;30.30;33.40;;;;;;5076538;28;20036;-46
2022/07/16 08:19:58;;;;;;;0.32;0.10;;;30.30;32.70;;;;;;5073299;28;20048;-47
2022/07/16 08:22:25;;;;;;;0.43;0.08;;;30.40;32.80;;;;;;5071168;28;20445;-48
2022/07/16 08:27:37;;;;;;;0.85;0.00;;;30.40;32.80;;;;;;5061000;28;20048;-47
2022/07/16 08:30:04;;;;;;;0.08;0.00;;;30.30;32.60;;;;;;5073233;28;20036;-45
2022/07/16 08:32:33;;;;;;;0.30;0.10;;;30.40;32.70;;;;;;5073664;28;20055;-48
2022/07/16 08:35:00;;;;;;;0.08;0.00;;;30.40;32.70;;;;;;5075264;28;20041;-47
2022/07/16 08:37:35;;;;;;;0.65;0.10;;;30.40;32.70;;;;;;5075383;28;20123;-46
2022/07/16 08:40:04;;;;;;;0.10;0.10;;;30.40;32.70;;;;;;5080072;28;20147;-47
2022/07/16 08:42:33;;;;;;;0.60;0.10;;;30.40;32.70;;;;;;5072399;28;20044;-46
2022/07/16 08:45:01;;;;;;;0.17;0.13;;;30.40;32.70;;;;;;5077064;28;20119;-46
2022/07/16 08:47:31;;;;;;;0.68;0.10;;;30.40;32.70;;;;;;5070605;28;20533;-46
2022/07/16 08:50:01;;;;;;;0.10;0.03;;;30.40;33.30;;;;;;5079621;28;20123;-46
2022/07/16 08:52:29;;;;;;;0.10;0.10;;;30.50;32.70;;;;;;5077947;28;20101;-45
2022/07/16 08:54:57;;;;;;;0.22;0.00;;;30.50;32.70;;;;;;5082885;28;20044;-49
2022/07/16 08:57:25;;;;;;;0.20;0.00;;;30.50;32.70;;;;;;5075636;28;20139;-48
2022/07/16 08:59:53;;;;;;;1.35;0.08;;;30.50;32.70;;;;;;5071677;28;20040;-48
2022/07/16 09:02:20;;;;;;;1.45;0.00;;;30.50;32.70;;;;;;5071111;28;20416;-48
2022/07/16 09:04:47;;;;;;;0.40;0.20;;;30.50;32.70;;;;;;5078039;28;20787;-44
2022/07/16 09:07:17;;;;;;;0.20;0.08;;;30.50;32.70;;;;;;5079305;28;20121;-45
2022/07/16 09:09:45;;;;;;;0.20;0.10;;;30.60;32.70;;;;;;5074317;28;20068;-45
2022/07/16 09:12:13;;;;;;;0.57;0.10;;;30.60;32.70;;;;;;5074163;28;20116;-45
2022/07/16 09:14:40;;;;;;;0.28;0.05;;;30.50;32.60;;;;;;5072562;28;20704;-46
2022/07/16 09:17:07;;;;;;;0.52;0.20;;;30.60;32.70;;;;;;5078554;28;20053;-48
2022/07/16 09:19:34;;;;;;;0.70;0.10;;;30.60;32.70;;;;;;5075157;28;20052;-47
2022/07/16 09:22:04;;;;;;;1.17;0.10;;;30.60;32.60;;;;;;5070635;28;20036;-45
2022/07/16 09:24:40;;;;;;;0.10;0.10;;;30.60;32.60;;;;;;5069072;28;20124;-45
2022/07/16 09:27:07;;;;;;;;;;;30.60;32.60;;;;;;5076437;28;20052;-46
2022/07/16 09:29:37;;;;;;;0.80;0.00;;;30.60;32.60;;;;;;5071128;28;19924;-47
2022/07/16 09:32:04;;;;;;;0.45;0.00;;;30.60;32.80;;;;;;5081314;28;20123;-48
2022/07/16 09:34:31;;;;;;;0.05;0.00;;;30.60;32.80;;;;;;5082217;28;20040;-49
2022/07/16 09:37:00;;;;;;;0.10;0.08;;;30.60;32.80;;;;;;5078444;28;20040;-45
2022/07/16 09:39:28;;;;;;;0.17;0.08;;;30.60;32.80;;;;;;5072856;28;20028;-45
2022/07/16 09:41:57;;;;;;;0.10;0.10;;;30.60;32.70;;;;;;5074523;28;20047;-51
2022/07/16 09:44:26;;;;;;;0.32;0.10;;;30.60;33.30;;;;;;5078202;28;20037;-46
2022/07/16 09:47:06;;;;;;;0.40;0.00;;;30.60;32.70;;;;;;5078751;28;20109;-47
2022/07/16 09:49:36;;;;;;;0.43;0.00;;;30.70;32.70;;;;;;5082413;28;20132;-47
2022/07/16 09:52:03;;;;;;;0.00;0.00;;;30.70;32.80;;;;;;5082902;28;20044;-45
2022/07/16 09:54:32;;;;;;;0.00;0.00;;;30.70;32.70;;;;;;5078439;28;20036;-47
2022/07/16 09:57:15;;;;;;;0.30;0.10;;;30.70;32.90;;;;;;5089481;28;20043;-49
2022/07/16 09:59:44;;;;;;;0.00;0.00;;;30.70;32.70;;;;;;5076459;28;20044;-49
2022/07/16 10:02:11;;;;;;;0.20;0.00;;;30.70;32.70;;;;;;5083170;28;20134;-49
2022/07/16 10:04:39;;;;;;;0.10;0.00;;;30.70;32.70;;;;;;5065179;28;20131;-48
2022/07/16 10:07:07;;;;;;;0.47;0.10;;;30.70;32.70;;;;;;5083307;28;20054;-49
2022/07/16 10:09:34;;;;;;;0.05;0.00;;;30.70;32.70;;;;;;5078777;28;20047;-46
2022/07/16 10:12:06;;;;;;;1.65;0.00;;;30.70;32.70;;;;;;5075599;28;20050;-46
2022/07/16 10:14:38;;;;;;;0.10;0.10;;;30.80;32.80;;;;;;5078663;28;20067;-45
2022/07/16 10:17:13;;;;;;;0.17;0.00;;;30.70;32.70;;;;;;5076308;28;20044;-47
2022/07/16 10:19:41;;;;;;;0.25;0.25;;;30.80;32.70;;;;;;5074812;28;20063;-47
2022/07/16 10:22:18;;;;;;;0.28;0.17;;;30.80;32.70;;;;;;5080676;28;20075;-45
2022/07/16 10:24:47;;;;;;;0.10;0.10;;;30.80;32.70;;;;;;5073156;28;20040;-48
2022/07/16 10:27:25;;;;;;;0.10;0.00;;;30.80;32.70;;;;;;5078833;28;20032;-46
2022/07/16 10:30:09;;;;;;;0.30;0.10;;;30.80;32.70;;;;;;5074750;28;20975;-45
2022/07/16 10:33:18;;;;;;;0.38;0.00;;;30.90;32.70;;;;;;5076683;28;20064;-45
2022/07/16 10:35:48;;;;;;;0.00;0.00;;;30.90;32.70;;;;;;5078301;28;20061;-46
2022/07/16 10:38:18;;;;;;;0.90;0.20;;;30.80;32.70;;;;;;5072083;28;20029;-45
2022/07/16 10:40:47;;;;;;;0.30;0.00;;;30.90;32.80;;;;;;5073772;28;20041;-46
2022/07/16 10:43:16;;;;;;;0.00;0.00;;;30.80;32.70;;;;;;5075513;28;20127;-46
2022/07/16 10:45:54;;;;;;;0.40;0.20;;;30.80;32.60;;;;;;5077562;28;20037;-49
2022/07/16 10:48:23;;;;;;;0.10;0.05;;;30.90;32.70;;;;;;5077722;28;20039;-44
2022/07/16 10:51:14;;;;;;;0.10;0.00;;;30.90;32.70;;;;;;5077693;28;20381;-44
2022/07/16 10:54:27;;;;;;;0.30;0.05;;;30.90;32.60;;;;;;5077775;28;20401;-46
2022/07/16 10:56:56;;;;;;;0.00;0.00;;;30.90;32.60;;;;;;5069355;28;20406;-45
2022/07/16 10:59:25;;;;;;;0.00;0.00;;;30.90;32.70;;;;;;5074020;28;20455;-43
2022/07/16 11:01:55;;;;;;;0.10;0.10;;;30.90;33.30;;;;;;5083073;28;20044;-49
2022/07/16 11:04:34;;;;;;;0.10;0.05;;;30.90;32.70;;;;;;5076248;28;20512;-49
2022/07/16 11:07:02;;;;;;;1.23;0.10;;;31.00;32.70;;;;;;5064685;28;20785;-48
2022/07/16 11:09:31;;;;;;;0.10;0.00;;;30.90;32.70;;;;;;5074886;28;20032;-45
2022/07/16 11:12:08;;;;;;;0.40;0.15;;;31.00;32.80;;;;;;5078402;28;20445;-45
2022/07/16 11:14:36;;;;;;;0.22;0.00;;;31.00;32.70;;;;;;5072222;28;20036;-48
2022/07/16 11:17:05;;;;;;;0.10;0.05;;;31.00;32.70;;;;;;5074687;28;20036;-47
2022/07/16 11:19:36;;;;;;;0.00;0.00;;;31.00;32.70;;;;;;5078390;28;20588;-46
2022/07/16 11:22:04;;;;;;;1.65;0.10;;;31.00;32.70;;;;;;5080311;28;20094;-46
2022/07/16 11:24:32;;;;;;;0.05;0.03;;;31.10;32.80;;;;;;5078056;28;20036;-47
2022/07/16 11:27:01;;;;;;;0.13;0.10;;;31.10;32.70;;;;;;5074214;28;20044;-45
2022/07/16 11:29:29;;;;;;;1.23;0.52;;;31.10;32.70;;;;;;5072602;28;20044;-48
2022/07/16 11:31:58;;;;;;;1.25;0.60;;;31.10;32.70;;;;;;5063459;28;20541;-46
2022/07/16 11:34:27;;;;;;;3.40;0.90;;;31.10;32.70;;;;;;5081018;28;20044;-48
2022/07/16 11:36:57;;;;;;;1.30;0.50;;;31.10;32.70;;;;;;5072944;28;20051;-46
2022/07/16 11:39:27;;;;;;;3.40;1.67;;;31.20;32.70;;;;;;5079188;28;20101;-48
2022/07/16 11:41:56;;;;;;;5.13;2.08;;;31.10;32.60;;;;;;5077525;28;20035;-49
2022/07/16 11:44:26;;;;;;;5.75;1.75;;;31.20;32.70;;;;;;5074694;28;20044;-46
2022/07/16 11:46:54;;;;;;;4.32;1.98;;;31.20;32.70;;;;;;5076648;28;20071;-46
2022/07/16 11:49:24;;;;;;;4.05;1.77;;;31.20;32.60;;;;;;5079124;28;20041;-47
2022/07/16 11:51:53;;;;;;;7.57;1.73;;;31.20;32.60;;;;;;5078517;28;20078;-48
2022/07/16 11:54:20;;;;;;;2.55;1.70;;;31.30;32.70;;;;;;5076726;28;20032;-45
2022/07/16 11:56:48;;;;;;;4.60;2.65;;;31.30;32.60;;;;;;5072035;28;20538;-44
2022/07/16 11:59:22;;;;;;;6.65;1.60;;;31.30;32.60;;;;;;5077020;28;20095;-46
2022/07/16 12:02:01;;;;;;;4.18;1.65;;;31.30;32.60;;;;;;5081609;28;20102;-44
2022/07/16 12:04:37;;;;;;;3.60;3.20;;;31.40;32.60;;;;;;5072665;28;20132;-49
2022/07/16 12:07:07;;;;;;;8.25;3.78;;;31.40;32.60;;;;;;5078996;28;20056;-49
2022/07/16 12:09:38;;;;;;;11.15;3.72;;;31.40;32.60;;;;;;5071339;28;20095;-46
2022/07/16 12:12:07;;;;;;;5.90;2.58;;;31.40;32.50;;;;;;5076971;28;20047;-46
2022/07/16 12:14:52;;;;;;;4.65;2.42;;;31.40;32.50;;;;;;5071139;28;20497;-47
2022/07/16 12:17:25;;;;;;;5.88;2.65;;;31.50;32.50;;;;;;5072146;28;20053;-49
2022/07/16 12:20:14;;;;;;;5.35;2.50;;;31.50;32.50;;;;;;5079868;28;20067;-47
2022/07/16 12:22:52;;;;;;;5.10;2.05;;;31.50;32.40;;;;;;5075573;28;20099;-46
2022/07/16 12:25:21;;;;;;;4.93;2.78;;;31.60;32.50;;;;;;5071528;28;20650;-50
2022/07/16 12:27:50;;;;;;;3.58;1.50;;;31.50;32.40;;;;;;5072870;28;20151;-45
2022/07/16 12:30:18;;;;;;;5.70;2.28;;;31.50;32.40;;;;;;5077483;28;20043;-45
2022/07/16 12:32:50;;;;;;;3.65;1.70;;;31.60;32.40;;;;;;5070946;28;20552;-46
2022/07/16 12:35:36;;;;;;;4.25;2.40;;;31.60;32.40;;;;;;5077314;28;20046;-45
2022/07/16 12:38:05;;;;;;;2.35;1.30;;;31.70;32.40;;;;;;5068987;28;20145;-45
2022/07/16 12:40:33;;;;;;;2.20;1.55;;;31.70;32.40;;;;;;5079122;28;20041;-47
2022/07/16 12:43:01;;;;;;;5.25;1.60;;;31.70;32.40;;;;;;5080582;28;20040;-45
2022/07/16 12:45:28;;;;;;;1.58;1.48;;;31.70;32.30;;;;;;5075426;28;20110;-45
2022/07/16 12:47:56;;;;;;;1.77;1.05;;;31.70;32.30;;;;;;5072171;28;20505;-47
2022/07/16 12:50:23;;;;;;;3.53;1.52;;;31.80;32.30;;;;;;5073993;28;20110;-45
2022/07/16 12:52:52;;;;;;;1.75;0.93;;;31.80;32.20;;;;;;5081070;28;20529;-46
2022/07/16 13:00:49;;;;;;;0.75;0.40;;;31.80;32.10;;;;;;5078256;28;19924;-47
2022/07/16 13:03:16;;;;;;;1.70;1.00;;;31.80;32.20;;;;;;5076066;28;20036;-47